createdAt,value
2018-10-03T00:00:19.196Z,69.10
2018-10-03T00:02:46.780Z,68.90
2018-10-03T00:05:14.370Z,68.70
2018-10-03T00:07:41.875Z,69.10
2018-10-03T00:10:09.409Z,68.90
2018-10-03T00:12:37.043Z,69.70
2018-10-03T00:15:04.603Z,69.40
2018-10-03T00:17:32.140Z,69.30
2018-10-03T00:19:59.762Z,68.50
2018-10-03T00:22:27.270Z,68.60
2018-10-03T00:24:54.826Z,68.50
2018-10-03T00:27:22.318Z,68.70
2018-10-03T00:29:49.901Z,68.50
2018-10-03T00:32:17.502Z,68.80
2018-10-03T00:34:45.052Z,68.80
2018-10-03T00:37:12.618Z,69.00
2018-10-03T00:39:40.143Z,69.00
2018-10-03T00:42:07.620Z,69.20
2018-10-03T00:44:35.172Z,68.60
2018-10-03T00:47:02.701Z,68.90
2018-10-03T00:49:30.449Z,68.70
2018-10-03T00:51:57.940Z,69.10
2018-10-03T00:54:25.458Z,69.10
2018-10-03T00:56:52.960Z,69.30
2018-10-03T00:59:20.483Z,69.50
2018-10-03T01:01:48.023Z,69.60
2018-10-03T01:04:15.556Z,69.70
2018-10-03T01:06:43.079Z,69.60
2018-10-03T01:09:10.679Z,69.50
2018-10-03T01:11:38.197Z,69.20
2018-10-03T01:14:05.994Z,69.40
2018-10-03T01:16:33.531Z,69.10
2018-10-03T01:19:01.094Z,69.00
2018-10-03T01:21:28.630Z,69.00
2018-10-03T01:23:56.295Z,69.10
2018-10-03T01:26:23.840Z,69.00
2018-10-03T01:28:51.373Z,69.40
2018-10-03T01:31:18.910Z,68.90
2018-10-03T01:33:46.479Z,68.90
2018-10-03T01:36:14.058Z,69.10
2018-10-03T01:38:41.638Z,69.40
2018-10-03T01:41:09.151Z,69.10
2018-10-03T01:43:36.680Z,69.80
2018-10-03T01:46:04.203Z,69.20
2018-10-03T01:48:31.731Z,69.70
2018-10-03T01:50:59.279Z,69.90
2018-10-03T01:53:26.806Z,70.50
2018-10-03T01:55:54.346Z,69.50
2018-10-03T01:58:21.918Z,69.60
2018-10-03T02:00:49.463Z,69.70
2018-10-03T02:03:17.014Z,69.60
2018-10-03T02:05:44.551Z,69.90
2018-10-03T02:08:12.133Z,69.70
2018-10-03T02:10:39.897Z,69.90
2018-10-03T02:13:07.535Z,70.60
2018-10-03T02:15:35.079Z,70.00
2018-10-03T02:18:02.625Z,69.80
2018-10-03T02:20:30.186Z,69.70
2018-10-03T02:22:57.775Z,70.40
2018-10-03T02:25:25.299Z,70.10
2018-10-03T02:27:52.831Z,70.10
2018-10-03T02:30:20.345Z,69.80
2018-10-03T02:32:47.879Z,69.80
2018-10-03T02:35:15.398Z,69.50
2018-10-03T02:37:42.923Z,69.40
2018-10-03T02:40:10.515Z,70.00
2018-10-03T02:42:38.092Z,69.70
2018-10-03T02:45:05.749Z,70.00
2018-10-03T02:47:33.331Z,69.80
2018-10-03T02:50:00.928Z,69.50
2018-10-03T02:52:28.498Z,69.90
2018-10-03T02:54:56.040Z,70.00
2018-10-03T02:57:23.549Z,70.40
2018-10-03T02:59:51.077Z,70.80
2018-10-03T03:02:18.574Z,70.30
2018-10-03T03:04:46.132Z,70.60
2018-10-03T03:07:13.638Z,70.80
2018-10-03T03:09:41.146Z,70.60
2018-10-03T03:12:08.658Z,70.60
2018-10-03T03:14:36.451Z,70.60
2018-10-03T03:17:03.929Z,70.90
2018-10-03T03:19:31.535Z,70.80
2018-10-03T03:21:59.079Z,71.20
2018-10-03T03:24:26.615Z,71.00
2018-10-03T03:26:54.144Z,71.30
2018-10-03T03:29:21.742Z,71.10
2018-10-03T03:31:49.259Z,71.10
2018-10-03T03:34:16.751Z,71.10
2018-10-03T03:36:44.247Z,71.20
2018-10-03T03:39:11.780Z,71.20
2018-10-03T03:41:39.303Z,71.30
2018-10-03T03:44:06.842Z,71.30
2018-10-03T03:46:34.381Z,71.60
2018-10-03T03:49:01.968Z,71.80
2018-10-03T03:51:29.519Z,71.80
2018-10-03T03:53:57.182Z,71.60
2018-10-03T03:56:24.756Z,71.40
2018-10-03T03:58:52.336Z,71.20
2018-10-03T04:01:19.840Z,71.40
2018-10-03T04:03:47.454Z,71.50
2018-10-03T04:06:14.994Z,71.40
2018-10-03T04:08:42.495Z,71.40
2018-10-03T04:11:10.098Z,71.20
2018-10-03T04:13:37.651Z,71.30
2018-10-03T04:16:05.214Z,71.40
2018-10-03T04:18:32.695Z,71.80
2018-10-03T04:21:00.330Z,71.80
2018-10-03T04:23:27.917Z,71.80
2018-10-03T04:25:55.519Z,71.90
2018-10-03T04:28:23.064Z,71.90
2018-10-03T04:30:50.591Z,71.90
2018-10-03T04:33:18.090Z,72.30
2018-10-03T04:35:45.631Z,72.30
2018-10-03T04:38:13.136Z,72.50
2018-10-03T04:40:40.754Z,72.20
2018-10-03T04:43:08.320Z,72.20
2018-10-03T04:45:35.855Z,72.30
2018-10-03T04:48:03.394Z,72.20
2018-10-03T04:50:30.956Z,72.10
2018-10-03T04:52:58.518Z,72.10
2018-10-03T04:55:26.048Z,72.20
2018-10-03T04:57:53.562Z,72.00
2018-10-03T05:00:21.112Z,72.10
2018-10-03T05:02:48.693Z,72.10
2018-10-03T05:05:16.282Z,72.00
2018-10-03T05:07:43.885Z,72.10
2018-10-03T05:10:11.403Z,72.50
2018-10-03T05:12:39.038Z,72.50
2018-10-03T05:15:06.590Z,72.30
2018-10-03T05:17:34.121Z,72.50
2018-10-03T05:20:01.761Z,72.60
2018-10-03T05:22:29.311Z,72.40
2018-10-03T05:24:56.888Z,72.30
2018-10-03T05:27:24.446Z,72.20
2018-10-03T05:29:52.017Z,72.50
2018-10-03T05:32:19.528Z,72.00
2018-10-03T05:34:47.124Z,72.10
2018-10-03T05:37:14.862Z,72.60
2018-10-03T05:39:42.505Z,72.90
2018-10-03T05:42:09.996Z,73.10
2018-10-03T05:44:37.600Z,73.50
2018-10-03T05:47:05.551Z,73.50
2018-10-03T05:49:33.246Z,73.80
2018-10-03T05:52:00.826Z,73.90
2018-10-03T05:54:28.528Z,74.10
2018-10-03T05:56:56.047Z,74.20
2018-10-03T05:59:23.601Z,74.30
2018-10-03T06:01:51.337Z,74.30
2018-10-03T06:04:18.849Z,74.50
2018-10-03T06:06:46.359Z,74.70
2018-10-03T06:09:13.875Z,74.60
2018-10-03T06:11:42.244Z,75.10
2018-10-03T06:14:09.978Z,75.50
2018-10-03T06:16:37.575Z,75.80
2018-10-03T06:19:05.227Z,76.70
2018-10-03T06:21:33.265Z,76.40
2018-10-03T06:24:00.834Z,76.50
2018-10-03T06:26:28.351Z,76.30
2018-10-03T06:28:55.973Z,76.20
2018-10-03T06:31:23.477Z,76.40
2018-10-03T06:33:51.009Z,76.10
2018-10-03T06:36:18.607Z,76.50
2018-10-03T06:38:46.180Z,76.50
2018-10-03T06:41:13.757Z,76.80
2018-10-03T06:43:41.341Z,76.90
2018-10-03T06:46:09.301Z,76.30
2018-10-03T06:48:36.795Z,76.30
2018-10-03T06:51:04.423Z,76.10
2018-10-03T06:53:31.946Z,76.10
2018-10-03T06:55:59.533Z,75.80
2018-10-03T06:58:27.055Z,75.70
2018-10-03T07:00:54.599Z,74.90
2018-10-03T07:03:23.064Z,75.10
2018-10-03T07:05:50.744Z,74.40
2018-10-03T07:08:18.227Z,74.30
2018-10-03T07:10:45.811Z,74.20
2018-10-03T07:13:13.428Z,74.20
2018-10-03T07:15:40.946Z,74.00
2018-10-03T07:18:08.564Z,74.10
2018-10-03T07:20:36.455Z,74.30
2018-10-03T07:23:04.089Z,74.60
2018-10-03T07:25:31.673Z,75.00
2018-10-03T07:27:59.632Z,75.10
2018-10-03T07:30:27.240Z,75.10
2018-10-03T07:32:54.850Z,75.10
2018-10-03T07:35:22.419Z,74.50
2018-10-03T07:37:49.999Z,74.00
2018-10-03T07:40:17.581Z,74.10
2018-10-03T07:42:45.185Z,74.50
2018-10-03T07:45:12.768Z,74.90
2018-10-03T07:47:40.347Z,75.10
2018-10-03T07:50:08.421Z,75.20
2018-10-03T07:52:36.016Z,74.90
2018-10-03T07:55:03.608Z,74.80
2018-10-03T07:57:31.170Z,74.50
2018-10-03T07:59:58.752Z,74.70
2018-10-03T08:02:26.351Z,74.20
2018-10-03T08:04:53.872Z,73.40
2018-10-03T08:07:21.467Z,73.60
2018-10-03T08:09:49.094Z,73.20
2018-10-03T08:12:16.679Z,73.10
2018-10-03T08:14:44.276Z,73.50
2018-10-03T08:17:11.957Z,72.90
2018-10-03T08:19:39.561Z,72.90
2018-10-03T08:22:07.212Z,72.90
2018-10-03T08:24:34.897Z,72.10
2018-10-03T08:27:02.488Z,71.90
2018-10-03T08:29:30.079Z,71.70
2018-10-03T08:31:57.639Z,72.00
2018-10-03T08:34:25.261Z,72.20
2018-10-03T08:36:52.842Z,71.10
2018-10-03T08:39:20.862Z,71.10
2018-10-03T08:41:48.482Z,72.40
2018-10-03T08:44:16.050Z,72.20
2018-10-03T08:46:43.662Z,72.20
2018-10-03T08:49:11.232Z,72.50
2018-10-03T08:51:38.848Z,72.00
2018-10-03T08:54:06.489Z,73.40
2018-10-03T08:56:34.242Z,74.10
2018-10-03T08:59:01.795Z,73.30
2018-10-03T09:01:29.467Z,72.40
2018-10-03T09:03:57.069Z,73.00
2018-10-03T09:06:24.722Z,73.20
2018-10-03T09:08:52.741Z,72.10
2018-10-03T09:11:20.418Z,71.80
2018-10-03T09:13:48.099Z,70.70
2018-10-03T09:16:15.780Z,69.90
2018-10-03T09:18:43.363Z,69.90
2018-10-03T09:21:11.064Z,70.60
2018-10-03T09:23:38.731Z,71.00
2018-10-03T09:26:06.473Z,70.90
2018-10-03T09:28:34.194Z,70.90
2018-10-03T09:31:02.066Z,70.60
2018-10-03T09:33:29.714Z,71.00
2018-10-03T09:35:57.353Z,70.70
2018-10-03T09:38:24.987Z,70.70
2018-10-03T09:40:52.556Z,69.80
2018-10-03T09:43:20.199Z,70.20
2018-10-03T09:45:47.802Z,71.40
2018-10-03T09:48:15.480Z,71.40
2018-10-03T09:50:43.043Z,72.00
2018-10-03T09:53:10.673Z,71.70
2018-10-03T09:55:38.347Z,71.40
2018-10-03T09:58:06.016Z,71.70
2018-10-03T10:00:39.143Z,71.80
2018-10-03T10:03:06.921Z,72.10
2018-10-03T10:05:34.550Z,72.20
2018-10-03T10:08:02.189Z,72.20
2018-10-03T10:10:29.829Z,72.60
2018-10-03T10:12:57.443Z,73.20
2018-10-03T10:15:25.147Z,73.30
2018-10-03T10:17:52.873Z,73.20
2018-10-03T10:20:20.454Z,72.10
2018-10-03T10:22:48.057Z,70.10
2018-10-03T10:25:15.761Z,67.10
2018-10-03T10:27:43.429Z,65.20
2018-10-03T10:30:11.023Z,65.10
2018-10-03T10:32:39.037Z,64.10
2018-10-03T10:35:06.734Z,63.40
2018-10-03T10:37:34.521Z,62.80
2018-10-03T10:40:02.176Z,63.20
2018-10-03T10:42:29.809Z,62.60
2018-10-03T10:44:57.536Z,63.20
2018-10-03T10:47:25.252Z,63.80
2018-10-03T10:49:52.851Z,64.10
2018-10-03T10:52:20.517Z,63.30
2018-10-03T10:54:48.136Z,62.00
2018-10-03T10:57:15.816Z,62.20
2018-10-03T10:59:43.438Z,62.70
2018-10-03T11:02:11.065Z,62.70
2018-10-03T11:04:38.721Z,62.50
2018-10-03T11:07:06.553Z,61.00
2018-10-03T11:09:34.260Z,60.90
2018-10-03T11:12:01.914Z,60.30
2018-10-03T11:14:29.585Z,59.50
2018-10-03T11:16:57.361Z,55.70
2018-10-03T11:19:24.912Z,53.30
2018-10-03T11:21:52.492Z,49.10
2018-10-03T11:24:20.295Z,48.00
2018-10-03T11:26:47.922Z,45.20
2018-10-03T11:29:15.596Z,44.10
2018-10-03T11:31:43.197Z,40.50
2018-10-03T11:34:10.777Z,38.20
2018-10-03T11:36:38.416Z,37.60
2018-10-03T11:39:07.605Z,38.00
2018-10-03T11:41:35.473Z,37.90
2018-10-03T11:44:03.086Z,39.00
2018-10-03T11:46:30.652Z,39.70
2018-10-03T11:48:58.189Z,41.30
2018-10-03T11:51:25.913Z,41.80
2018-10-03T11:53:53.525Z,43.80
2018-10-03T11:56:21.160Z,44.10
2018-10-03T11:58:48.836Z,45.20
2018-10-03T12:01:16.481Z,46.20
2018-10-03T12:03:44.100Z,46.80
2018-10-03T12:06:11.758Z,46.80
2018-10-03T12:08:39.315Z,46.60
2018-10-03T12:11:07.156Z,46.90
2018-10-03T12:13:34.813Z,47.90
2018-10-03T12:16:02.588Z,47.50
2018-10-03T12:18:30.766Z,47.50
2018-10-03T12:20:58.338Z,47.50
2018-10-03T12:23:25.966Z,48.40
2018-10-03T12:25:53.643Z,48.60
2018-10-03T12:28:21.309Z,49.10
2018-10-03T12:30:49.063Z,50.20
2018-10-03T12:33:16.771Z,50.60
2018-10-03T12:35:44.354Z,50.40
2018-10-03T12:38:12.008Z,51.50
2018-10-03T12:40:39.680Z,52.30
2018-10-03T12:43:07.285Z,52.00
2018-10-03T12:45:34.901Z,52.80
2018-10-03T12:48:02.596Z,53.50
2018-10-03T12:50:30.207Z,53.10
2018-10-03T12:52:57.865Z,51.80
2018-10-03T12:55:25.404Z,52.40
2018-10-03T12:57:53.050Z,52.20
2018-10-03T13:00:20.703Z,52.70
2018-10-03T13:02:48.280Z,53.30
2018-10-03T13:05:15.889Z,50.50
2018-10-03T13:07:43.558Z,47.80
2018-10-03T13:10:11.143Z,47.30
2018-10-03T13:12:38.806Z,48.80
2018-10-03T13:15:06.445Z,50.40
2018-10-03T13:17:34.054Z,51.70
2018-10-03T13:20:01.640Z,52.60
2018-10-03T13:22:29.301Z,52.60
2018-10-03T13:24:56.928Z,54.40
2018-10-03T13:27:24.560Z,53.60
2018-10-03T13:29:52.199Z,54.00
2018-10-03T13:32:19.827Z,54.90
2018-10-03T13:34:47.416Z,55.10
2018-10-03T13:37:15.081Z,56.10
2018-10-03T13:39:42.678Z,56.30
2018-10-03T13:42:10.294Z,56.00
2018-10-03T13:44:37.852Z,57.10
2018-10-03T13:47:05.323Z,56.50
2018-10-03T13:49:32.955Z,56.40
2018-10-03T13:52:00.537Z,57.00
2018-10-03T13:54:28.238Z,56.50
2018-10-03T13:56:56.004Z,56.40
2018-10-03T13:59:23.629Z,56.20
2018-10-03T14:01:51.244Z,56.70
2018-10-03T14:04:18.838Z,56.10
2018-10-03T14:06:46.374Z,56.30
2018-10-03T14:09:13.989Z,55.90
2018-10-03T14:11:41.529Z,56.10
2018-10-03T14:14:09.158Z,56.60
2018-10-03T14:16:36.758Z,56.80
2018-10-03T14:19:04.503Z,56.90
2018-10-03T14:21:32.178Z,56.80
2018-10-03T14:23:59.937Z,57.40
2018-10-03T14:26:27.577Z,57.40
2018-10-03T14:28:55.554Z,57.30
2018-10-03T14:31:23.340Z,57.50
2018-10-03T14:33:51.027Z,58.50
2018-10-03T14:36:18.669Z,58.00
2018-10-03T14:38:46.340Z,57.60
2018-10-03T14:41:13.973Z,58.00
2018-10-03T14:43:41.868Z,58.30
2018-10-03T14:46:09.599Z,58.30
2018-10-03T14:48:37.603Z,58.50
2018-10-03T14:51:05.692Z,59.30
2018-10-03T14:53:33.477Z,59.60
2018-10-03T14:56:01.332Z,58.70
2018-10-03T14:58:29.040Z,59.00
2018-10-03T15:00:56.992Z,58.80
2018-10-03T15:03:24.933Z,59.60
2018-10-03T15:05:52.799Z,59.70
2018-10-03T15:08:20.610Z,59.50
2018-10-03T15:10:48.392Z,59.90
2018-10-03T15:13:16.069Z,60.40
2018-10-03T15:15:43.895Z,60.20
2018-10-03T15:18:11.780Z,60.40
2018-10-03T15:20:39.869Z,59.80
2018-10-03T15:23:08.007Z,60.00
2018-10-03T15:25:35.934Z,59.90
2018-10-03T15:28:03.790Z,60.80
2018-10-03T15:30:31.524Z,60.80
2018-10-03T15:32:59.320Z,61.00
2018-10-03T15:35:27.300Z,61.40
2018-10-03T15:37:55.231Z,61.30
2018-10-03T15:40:22.899Z,60.80
2018-10-03T15:42:50.725Z,61.40
2018-10-03T15:45:18.607Z,60.80
2018-10-03T15:47:46.709Z,61.00
2018-10-03T15:50:14.586Z,61.30
2018-10-03T15:52:42.416Z,60.70
2018-10-03T15:55:10.240Z,61.50
2018-10-03T15:57:37.985Z,61.40
2018-10-03T16:00:06.055Z,61.40
2018-10-03T16:02:33.739Z,61.20
2018-10-03T16:05:01.391Z,61.60
2018-10-03T16:07:29.098Z,62.10
2018-10-03T16:09:56.676Z,62.40
2018-10-03T16:12:24.434Z,62.40
2018-10-03T16:14:52.131Z,63.10
2018-10-03T16:17:19.687Z,63.40
2018-10-03T16:19:47.389Z,63.30
2018-10-03T16:22:15.024Z,63.80
2018-10-03T16:24:42.691Z,63.90
2018-10-03T16:27:10.502Z,64.60
2018-10-03T16:29:38.199Z,64.50
2018-10-03T16:32:05.989Z,64.10
2018-10-03T16:34:33.642Z,64.80
2018-10-03T16:37:01.363Z,65.50
2018-10-03T16:39:29.005Z,65.60
2018-10-03T16:41:56.663Z,65.90
2018-10-03T16:44:24.304Z,66.10
2018-10-03T16:46:51.961Z,66.40
2018-10-03T16:49:19.637Z,66.70
2018-10-03T16:51:47.475Z,66.90
2018-10-03T16:54:15.206Z,67.20
2018-10-03T16:56:42.831Z,67.40
2018-10-03T16:59:10.542Z,67.80
2018-10-03T17:01:38.348Z,67.90
2018-10-03T17:04:06.170Z,68.00
2018-10-03T17:06:34.205Z,68.00
2018-10-03T17:09:01.892Z,68.30
2018-10-03T17:11:29.615Z,68.30
2018-10-03T17:14:17.198Z,68.80
2018-10-03T17:16:45.169Z,69.10
2018-10-03T17:19:13.064Z,69.30
2018-10-03T17:21:40.918Z,69.40
2018-10-03T17:24:08.783Z,69.40
2018-10-03T17:26:36.481Z,69.70
2018-10-03T17:29:04.331Z,70.00
2018-10-03T17:31:32.304Z,70.50
2018-10-03T17:34:00.210Z,70.50
2018-10-03T17:36:28.393Z,70.60
2018-10-03T17:38:56.196Z,70.60
2018-10-03T17:41:24.091Z,70.60
2018-10-03T17:43:52.012Z,70.60
2018-10-03T17:46:19.877Z,70.70
2018-10-03T17:48:47.715Z,71.10
2018-10-03T17:51:15.681Z,71.40
2018-10-03T17:53:43.680Z,71.60
2018-10-03T17:56:11.649Z,71.80
2018-10-03T17:58:39.727Z,71.90
2018-10-03T18:01:07.685Z,71.80
2018-10-03T18:03:35.585Z,71.60
2018-10-03T18:06:03.700Z,71.60
2018-10-03T18:08:31.700Z,71.90
2018-10-03T18:10:59.746Z,71.60
2018-10-03T18:13:27.863Z,71.70
2018-10-03T18:15:55.907Z,71.80
2018-10-03T18:18:23.974Z,72.00
2018-10-03T18:20:51.873Z,72.10
2018-10-03T18:23:19.818Z,72.50
2018-10-03T18:25:47.879Z,72.50
2018-10-03T18:28:15.921Z,72.50
2018-10-03T18:30:44.069Z,72.50
2018-10-03T18:33:12.198Z,72.50
2018-10-03T18:35:40.121Z,72.40
2018-10-03T18:38:08.006Z,72.40
2018-10-03T18:40:36.015Z,72.70
2018-10-03T18:43:03.995Z,72.80
2018-10-03T18:45:31.865Z,73.40
2018-10-03T18:47:59.748Z,73.60
2018-10-03T18:50:28.540Z,73.80
2018-10-03T18:52:56.561Z,74.00
2018-10-03T18:55:24.490Z,73.90
2018-10-03T18:57:52.396Z,73.70
2018-10-03T19:00:20.318Z,73.80
2018-10-03T19:02:48.272Z,73.90
2018-10-03T19:05:16.083Z,74.10
2018-10-03T19:07:44.041Z,74.10
2018-10-03T19:10:11.912Z,73.60
2018-10-03T19:12:40.145Z,73.30
2018-10-03T19:15:08.033Z,73.00
2018-10-03T19:17:36.341Z,72.80
2018-10-03T19:20:04.584Z,72.50
2018-10-03T19:22:32.510Z,72.50
2018-10-03T19:25:00.346Z,72.60
2018-10-03T19:27:28.285Z,72.70
2018-10-03T19:29:56.149Z,73.20
2018-10-03T19:32:24.268Z,73.50
2018-10-03T19:34:52.053Z,73.40
2018-10-03T19:37:20.045Z,73.50
2018-10-03T19:39:47.859Z,73.40
2018-10-03T19:42:15.725Z,73.70
2018-10-03T19:44:43.491Z,73.70
2018-10-03T19:47:11.200Z,73.70
2018-10-03T19:49:38.874Z,73.70
2018-10-03T19:52:06.751Z,74.00
2018-10-03T19:54:34.637Z,74.20
2018-10-03T19:57:02.326Z,74.50
2018-10-03T19:59:30.331Z,75.10
2018-10-03T20:01:58.056Z,75.40
2018-10-03T20:04:25.890Z,75.50
2018-10-03T20:06:53.799Z,75.50
2018-10-03T20:09:22.159Z,75.40
2018-10-03T20:11:49.907Z,75.20
2018-10-03T20:14:18.592Z,75.30
2018-10-03T20:16:46.591Z,74.80
2018-10-03T20:19:14.424Z,75.00
2018-10-03T20:21:42.649Z,75.00
2018-10-03T20:24:10.459Z,74.40
2018-10-03T20:26:38.554Z,74.10
2018-10-03T20:29:06.685Z,73.80
2018-10-03T20:31:34.548Z,73.90
2018-10-03T20:34:02.618Z,73.60
2018-10-03T20:36:30.949Z,73.60
2018-10-03T20:38:58.684Z,73.60
2018-10-03T20:41:26.638Z,73.80
2018-10-03T20:43:54.956Z,73.70
2018-10-03T20:46:22.908Z,73.50
2018-10-03T20:48:50.626Z,73.60
2018-10-03T20:51:18.801Z,73.90
2018-10-03T20:53:46.716Z,74.30
2018-10-03T20:56:14.417Z,74.30
2018-10-03T20:58:42.345Z,74.50
2018-10-03T21:01:10.096Z,74.30
2018-10-03T21:03:38.141Z,74.30
2018-10-03T21:06:06.236Z,74.20
2018-10-03T21:08:34.211Z,74.30
2018-10-03T21:11:02.274Z,74.10
2018-10-03T21:13:30.224Z,74.10
2018-10-03T21:15:58.127Z,74.00
2018-10-03T21:18:26.004Z,74.30
2018-10-03T21:20:53.982Z,74.00
2018-10-03T21:23:21.852Z,73.70
2018-10-03T21:25:49.596Z,73.90
2018-10-03T21:28:17.540Z,74.10
2018-10-03T21:30:45.415Z,74.40
2018-10-03T21:33:13.201Z,74.40
2018-10-03T21:35:41.136Z,74.50
2018-10-03T21:38:08.934Z,74.60
2018-10-03T21:40:36.867Z,74.50
2018-10-03T21:43:04.762Z,74.90
2018-10-03T21:45:32.676Z,75.20
2018-10-03T21:48:00.419Z,74.80
2018-10-03T21:50:28.274Z,74.30
2018-10-03T21:52:56.377Z,74.10
2018-10-03T21:55:24.332Z,74.00
2018-10-03T21:57:52.243Z,73.80
2018-10-03T22:00:20.419Z,73.70
2018-10-03T22:02:48.320Z,73.40
2018-10-03T22:05:16.226Z,73.30
2018-10-03T22:07:44.241Z,73.80
2018-10-03T22:10:12.385Z,74.60
2018-10-03T22:12:40.423Z,74.60
2018-10-03T22:15:08.402Z,74.60
2018-10-03T22:17:38.366Z,74.50
2018-10-03T22:20:06.697Z,74.20
2018-10-03T22:22:34.476Z,74.50
2018-10-03T22:25:03.246Z,74.50
2018-10-03T22:27:31.064Z,74.60
2018-10-03T22:29:59.070Z,74.40
2018-10-03T22:32:27.018Z,74.30
2018-10-03T22:34:54.945Z,74.40
2018-10-03T22:37:22.713Z,74.20
2018-10-03T22:39:50.432Z,74.00
2018-10-03T22:42:18.327Z,74.30
2018-10-03T22:44:46.176Z,74.40
2018-10-03T22:47:14.066Z,74.40
2018-10-03T22:49:41.843Z,74.20
2018-10-03T22:52:09.619Z,74.20
2018-10-03T22:54:37.481Z,74.00
2018-10-03T22:57:05.269Z,73.80
2018-10-03T22:59:33.108Z,73.90
2018-10-03T23:02:00.968Z,74.00
2018-10-03T23:04:28.746Z,73.90
2018-10-03T23:06:56.545Z,74.00
2018-10-03T23:09:24.526Z,74.20
2018-10-03T23:11:52.374Z,74.00
2018-10-03T23:14:20.146Z,74.10
2018-10-03T23:16:47.936Z,74.50
2018-10-03T23:19:15.831Z,74.60
2018-10-03T23:21:43.578Z,74.70
2018-10-03T23:24:11.332Z,74.50
2018-10-03T23:26:39.133Z,74.40
2018-10-03T23:29:06.987Z,74.10
2018-10-03T23:31:34.747Z,73.70
2018-10-03T23:34:02.619Z,74.20
2018-10-03T23:36:30.368Z,73.90
2018-10-03T23:38:58.078Z,73.70
2018-10-03T23:41:25.838Z,73.70
2018-10-03T23:43:53.652Z,73.80
2018-10-03T23:46:21.412Z,73.90
2018-10-03T23:48:49.170Z,74.10
2018-10-03T23:51:16.869Z,74.20
2018-10-03T23:53:44.646Z,74.00
2018-10-03T23:56:12.395Z,74.20
2018-10-03T23:58:40.167Z,74.20
